sensor_id;sensor_type;location;lat;lon;timestamp;P1;durP1;ratioP1;P2;durP2;ratioP2
39968;SDS011;25648;47.808;19.004;2022-12-29T00:02:15;40.97;;;22.73;;
39968;SDS011;25648;47.808;19.004;2022-12-29T00:04:41;41.42;;;22.08;;
39968;SDS011;25648;47.808;19.004;2022-12-29T00:07:08;40.00;;;21.80;;
39968;SDS011;25648;47.808;19.004;2022-12-29T00:09:34;38.53;;;22.70;;
39968;SDS011;25648;47.808;19.004;2022-12-29T00:12:00;45.92;;;25.40;;
39968;SDS011;25648;47.808;19.004;2022-12-29T00:14:27;47.83;;;26.42;;
39968;SDS011;25648;47.808;19.004;2022-12-29T00:17:12;50.05;;;25.52;;
39968;SDS011;25648;47.808;19.004;2022-12-29T00:19:38;48.08;;;26.63;;
39968;SDS011;25648;47.808;19.004;2022-12-29T00:22:23;46.33;;;26.30;;
39968;SDS011;25648;47.808;19.004;2022-12-29T00:25:08;46.80;;;25.98;;
39968;SDS011;25648;47.808;19.004;2022-12-29T00:27:53;45.42;;;24.40;;
39968;SDS011;25648;47.808;19.004;2022-12-29T00:30:37;43.40;;;23.83;;
39968;SDS011;25648;47.808;19.004;2022-12-29T00:33:22;43.58;;;23.88;;
39968;SDS011;25648;47.808;19.004;2022-12-29T00:36:15;47.70;;;24.77;;
39968;SDS011;25648;47.808;19.004;2022-12-29T00:38:46;40.30;;;23.00;;
39968;SDS011;25648;47.808;19.004;2022-12-29T00:41:33;43.50;;;21.95;;
39968;SDS011;25648;47.808;19.004;2022-12-29T00:44:17;46.72;;;23.75;;
39968;SDS011;25648;47.808;19.004;2022-12-29T00:46:43;38.97;;;22.60;;
39968;SDS011;25648;47.808;19.004;2022-12-29T00:49:10;45.20;;;23.63;;
39968;SDS011;25648;47.808;19.004;2022-12-29T00:51:57;43.33;;;24.35;;
39968;SDS011;25648;47.808;19.004;2022-12-29T00:54:24;43.55;;;23.50;;
39968;SDS011;25648;47.808;19.004;2022-12-29T00:56:51;48.17;;;25.25;;
39968;SDS011;25648;47.808;19.004;2022-12-29T00:59:17;46.83;;;25.45;;
39968;SDS011;25648;47.808;19.004;2022-12-29T01:01:43;43.42;;;25.20;;
39968;SDS011;25648;47.808;19.004;2022-12-29T01:04:10;52.13;;;27.02;;
39968;SDS011;25648;47.808;19.004;2022-12-29T01:06:37;43.92;;;23.75;;
39968;SDS011;25648;47.808;19.004;2022-12-29T01:09:03;43.78;;;23.00;;
39968;SDS011;25648;47.808;19.004;2022-12-29T01:11:49;41.72;;;23.75;;
39968;SDS011;25648;47.808;19.004;2022-12-29T01:14:15;44.15;;;24.17;;
39968;SDS011;25648;47.808;19.004;2022-12-29T01:16:41;40.75;;;23.00;;
39968;SDS011;25648;47.808;19.004;2022-12-29T01:19:07;44.10;;;22.98;;
39968;SDS011;25648;47.808;19.004;2022-12-29T01:21:33;41.90;;;22.58;;
39968;SDS011;25648;47.808;19.004;2022-12-29T01:23:58;46.05;;;23.08;;
39968;SDS011;25648;47.808;19.004;2022-12-29T01:26:24;48.00;;;23.52;;
39968;SDS011;25648;47.808;19.004;2022-12-29T01:28:50;42.88;;;23.05;;
39968;SDS011;25648;47.808;19.004;2022-12-29T01:31:16;41.63;;;23.98;;
39968;SDS011;25648;47.808;19.004;2022-12-29T01:33:42;44.65;;;24.65;;
39968;SDS011;25648;47.808;19.004;2022-12-29T01:36:09;38.70;;;22.17;;
39968;SDS011;25648;47.808;19.004;2022-12-29T01:38:37;45.17;;;24.77;;
39968;SDS011;25648;47.808;19.004;2022-12-29T01:41:03;44.30;;;24.02;;
39968;SDS011;25648;47.808;19.004;2022-12-29T01:43:44;41.83;;;22.70;;
39968;SDS011;25648;47.808;19.004;2022-12-29T01:46:14;42.05;;;22.45;;
39968;SDS011;25648;47.808;19.004;2022-12-29T01:48:41;40.43;;;22.93;;
39968;SDS011;25648;47.808;19.004;2022-12-29T01:51:08;38.65;;;21.63;;
39968;SDS011;25648;47.808;19.004;2022-12-29T01:53:34;38.03;;;21.90;;
39968;SDS011;25648;47.808;19.004;2022-12-29T01:56:02;39.30;;;23.20;;
39968;SDS011;25648;47.808;19.004;2022-12-29T01:58:33;41.67;;;22.98;;
39968;SDS011;25648;47.808;19.004;2022-12-29T02:01:02;41.28;;;23.52;;
39968;SDS011;25648;47.808;19.004;2022-12-29T02:03:29;46.35;;;23.27;;
39968;SDS011;25648;47.808;19.004;2022-12-29T02:06:14;42.83;;;23.35;;
39968;SDS011;25648;47.808;19.004;2022-12-29T02:08:49;44.58;;;24.05;;
39968;SDS011;25648;47.808;19.004;2022-12-29T02:11:18;34.08;;;18.40;;
39968;SDS011;25648;47.808;19.004;2022-12-29T02:13:44;40.65;;;22.30;;
39968;SDS011;25648;47.808;19.004;2022-12-29T02:32:52;40.78;;;22.42;;
39968;SDS011;25648;47.808;19.004;2022-12-29T02:48:38;37.55;;;22.80;;
39968;SDS011;25648;47.808;19.004;2022-12-29T02:51:10;38.45;;;22.25;;
39968;SDS011;25648;47.808;19.004;2022-12-29T02:53:43;42.53;;;22.52;;
39968;SDS011;25648;47.808;19.004;2022-12-29T02:56:29;41.75;;;22.90;;
39968;SDS011;25648;47.808;19.004;2022-12-29T02:58:56;42.65;;;22.40;;
39968;SDS011;25648;47.808;19.004;2022-12-29T03:09:02;37.70;;;21.17;;
39968;SDS011;25648;47.808;19.004;2022-12-29T03:11:44;42.78;;;22.73;;
39968;SDS011;25648;47.808;19.004;2022-12-29T03:14:33;39.75;;;22.25;;
39968;SDS011;25648;47.808;19.004;2022-12-29T03:17:47;39.13;;;21.97;;
39968;SDS011;25648;47.808;19.004;2022-12-29T03:20:28;39.28;;;22.00;;
39968;SDS011;25648;47.808;19.004;2022-12-29T03:23:03;37.10;;;21.33;;
39968;SDS011;25648;47.808;19.004;2022-12-29T03:25:32;40.90;;;22.15;;
39968;SDS011;25648;47.808;19.004;2022-12-29T03:28:03;42.08;;;23.08;;
39968;SDS011;25648;47.808;19.004;2022-12-29T03:30:51;42.38;;;22.38;;
39968;SDS011;25648;47.808;19.004;2022-12-29T03:33:18;41.60;;;21.23;;
39968;SDS011;25648;47.808;19.004;2022-12-29T03:35:48;37.72;;;20.95;;
39968;SDS011;25648;47.808;19.004;2022-12-29T03:38:23;37.80;;;20.88;;
39968;SDS011;25648;47.808;19.004;2022-12-29T03:41:01;40.30;;;21.95;;
39968;SDS011;25648;47.808;19.004;2022-12-29T03:43:33;36.40;;;21.42;;
39968;SDS011;25648;47.808;19.004;2022-12-29T03:45:59;38.67;;;20.65;;
39968;SDS011;25648;47.808;19.004;2022-12-29T03:48:24;38.83;;;21.85;;
39968;SDS011;25648;47.808;19.004;2022-12-29T03:50:50;37.50;;;21.02;;
39968;SDS011;25648;47.808;19.004;2022-12-29T03:53:16;41.78;;;22.10;;
39968;SDS011;25648;47.808;19.004;2022-12-29T03:55:41;41.22;;;21.30;;
39968;SDS011;25648;47.808;19.004;2022-12-29T03:58:07;39.90;;;21.67;;
39968;SDS011;25648;47.808;19.004;2022-12-29T04:00:33;42.60;;;22.05;;
39968;SDS011;25648;47.808;19.004;2022-12-29T04:02:58;41.28;;;22.02;;
39968;SDS011;25648;47.808;19.004;2022-12-29T04:05:24;42.88;;;21.90;;
39968;SDS011;25648;47.808;19.004;2022-12-29T04:07:50;41.05;;;22.08;;
39968;SDS011;25648;47.808;19.004;2022-12-29T04:10:15;40.50;;;21.45;;
39968;SDS011;25648;47.808;19.004;2022-12-29T04:12:41;40.42;;;21.83;;
39968;SDS011;25648;47.808;19.004;2022-12-29T04:15:07;38.55;;;20.95;;
39968;SDS011;25648;47.808;19.004;2022-12-29T04:17:33;40.35;;;21.63;;
39968;SDS011;25648;47.808;19.004;2022-12-29T04:19:59;38.45;;;21.48;;
39968;SDS011;25648;47.808;19.004;2022-12-29T04:22:43;47.90;;;24.42;;
39968;SDS011;25648;47.808;19.004;2022-12-29T04:25:09;40.42;;;22.48;;
39968;SDS011;25648;47.808;19.004;2022-12-29T04:27:34;40.22;;;22.52;;
39968;SDS011;25648;47.808;19.004;2022-12-29T04:30:00;41.65;;;22.60;;
39968;SDS011;25648;47.808;19.004;2022-12-29T04:32:26;37.78;;;22.58;;
39968;SDS011;25648;47.808;19.004;2022-12-29T04:34:52;41.15;;;22.80;;
39968;SDS011;25648;47.808;19.004;2022-12-29T04:37:17;39.83;;;22.05;;
39968;SDS011;25648;47.808;19.004;2022-12-29T04:39:43;42.42;;;23.05;;
39968;SDS011;25648;47.808;19.004;2022-12-29T04:42:09;42.53;;;22.83;;
39968;SDS011;25648;47.808;19.004;2022-12-29T04:44:34;38.90;;;21.50;;
39968;SDS011;25648;47.808;19.004;2022-12-29T04:47:00;48.97;;;23.92;;
39968;SDS011;25648;47.808;19.004;2022-12-29T04:49:26;42.50;;;21.60;;
39968;SDS011;25648;47.808;19.004;2022-12-29T04:51:51;41.30;;;21.77;;
39968;SDS011;25648;47.808;19.004;2022-12-29T04:54:17;39.38;;;22.17;;
39968;SDS011;25648;47.808;19.004;2022-12-29T04:56:43;43.67;;;21.50;;
39968;SDS011;25648;47.808;19.004;2022-12-29T04:59:08;39.75;;;21.98;;
39968;SDS011;25648;47.808;19.004;2022-12-29T05:01:34;43.75;;;22.50;;
39968;SDS011;25648;47.808;19.004;2022-12-29T05:05:36;41.42;;;21.75;;
39968;SDS011;25648;47.808;19.004;2022-12-29T05:08:01;45.83;;;23.85;;
39968;SDS011;25648;47.808;19.004;2022-12-29T05:10:27;44.53;;;22.75;;
39968;SDS011;25648;47.808;19.004;2022-12-29T05:12:52;45.30;;;23.40;;
39968;SDS011;25648;47.808;19.004;2022-12-29T05:15:18;42.45;;;23.02;;
39968;SDS011;25648;47.808;19.004;2022-12-29T05:17:44;41.85;;;22.80;;
39968;SDS011;25648;47.808;19.004;2022-12-29T05:20:10;44.72;;;23.90;;
39968;SDS011;25648;47.808;19.004;2022-12-29T05:22:35;48.35;;;24.48;;
39968;SDS011;25648;47.808;19.004;2022-12-29T05:25:01;50.83;;;24.85;;
39968;SDS011;25648;47.808;19.004;2022-12-29T05:27:27;41.45;;;23.50;;
39968;SDS011;25648;47.808;19.004;2022-12-29T05:29:53;44.92;;;23.60;;
39968;SDS011;25648;47.808;19.004;2022-12-29T05:32:19;48.20;;;24.95;;
39968;SDS011;25648;47.808;19.004;2022-12-29T05:34:45;47.45;;;24.40;;
39968;SDS011;25648;47.808;19.004;2022-12-29T05:37:10;50.25;;;24.17;;
39968;SDS011;25648;47.808;19.004;2022-12-29T05:39:36;54.03;;;26.52;;
39968;SDS011;25648;47.808;19.004;2022-12-29T05:42:02;54.30;;;25.40;;
39968;SDS011;25648;47.808;19.004;2022-12-29T05:44:27;49.83;;;26.13;;
39968;SDS011;25648;47.808;19.004;2022-12-29T05:46:56;55.50;;;26.00;;
39968;SDS011;25648;47.808;19.004;2022-12-29T05:49:22;52.20;;;25.63;;
39968;SDS011;25648;47.808;19.004;2022-12-29T05:51:47;51.47;;;25.30;;
39968;SDS011;25648;47.808;19.004;2022-12-29T05:54:13;45.63;;;24.02;;
39968;SDS011;25648;47.808;19.004;2022-12-29T05:56:39;54.72;;;26.60;;
39968;SDS011;25648;47.808;19.004;2022-12-29T05:59:04;51.58;;;25.65;;
39968;SDS011;25648;47.808;19.004;2022-12-29T06:01:30;50.95;;;25.33;;
39968;SDS011;25648;47.808;19.004;2022-12-29T06:03:56;45.47;;;24.08;;
39968;SDS011;25648;47.808;19.004;2022-12-29T06:06:21;56.55;;;27.20;;
39968;SDS011;25648;47.808;19.004;2022-12-29T06:08:47;51.08;;;25.73;;
39968;SDS011;25648;47.808;19.004;2022-12-29T06:11:13;52.50;;;26.13;;
39968;SDS011;25648;47.808;19.004;2022-12-29T06:13:38;55.83;;;27.00;;
39968;SDS011;25648;47.808;19.004;2022-12-29T06:16:04;58.22;;;25.85;;
39968;SDS011;25648;47.808;19.004;2022-12-29T06:18:30;52.22;;;25.45;;
39968;SDS011;25648;47.808;19.004;2022-12-29T06:21:02;57.17;;;27.20;;
39968;SDS011;25648;47.808;19.004;2022-12-29T06:23:29;54.63;;;27.90;;
39968;SDS011;25648;47.808;19.004;2022-12-29T06:25:55;52.65;;;26.88;;
39968;SDS011;25648;47.808;19.004;2022-12-29T06:28:21;61.13;;;28.35;;
39968;SDS011;25648;47.808;19.004;2022-12-29T06:30:47;55.92;;;27.30;;
39968;SDS011;25648;47.808;19.004;2022-12-29T06:33:13;56.80;;;28.45;;
39968;SDS011;25648;47.808;19.004;2022-12-29T06:35:41;56.45;;;28.02;;
39968;SDS011;25648;47.808;19.004;2022-12-29T06:38:07;54.65;;;28.75;;
39968;SDS011;25648;47.808;19.004;2022-12-29T06:40:33;53.80;;;28.40;;
39968;SDS011;25648;47.808;19.004;2022-12-29T06:42:58;58.40;;;28.25;;
39968;SDS011;25648;47.808;19.004;2022-12-29T06:45:24;54.15;;;27.10;;
39968;SDS011;25648;47.808;19.004;2022-12-29T06:47:50;56.88;;;26.38;;
39968;SDS011;25648;47.808;19.004;2022-12-29T06:50:15;56.78;;;29.65;;
39968;SDS011;25648;47.808;19.004;2022-12-29T06:52:41;65.68;;;31.25;;
39968;SDS011;25648;47.808;19.004;2022-12-29T06:55:07;62.10;;;29.45;;
39968;SDS011;25648;47.808;19.004;2022-12-29T06:57:33;56.40;;;28.60;;
39968;SDS011;25648;47.808;19.004;2022-12-29T06:59:58;61.13;;;29.40;;
39968;SDS011;25648;47.808;19.004;2022-12-29T07:02:24;57.65;;;28.40;;
39968;SDS011;25648;47.808;19.004;2022-12-29T07:04:50;57.28;;;27.85;;
39968;SDS011;25648;47.808;19.004;2022-12-29T07:07:18;49.92;;;26.98;;
39968;SDS011;25648;47.808;19.004;2022-12-29T07:09:44;56.95;;;30.60;;
39968;SDS011;25648;47.808;19.004;2022-12-29T07:12:10;53.90;;;26.73;;
39968;SDS011;25648;47.808;19.004;2022-12-29T07:14:36;50.42;;;27.52;;
39968;SDS011;25648;47.808;19.004;2022-12-29T07:17:02;56.05;;;26.80;;
39968;SDS011;25648;47.808;19.004;2022-12-29T07:19:30;47.15;;;25.17;;
39968;SDS011;25648;47.808;19.004;2022-12-29T07:22:00;51.35;;;25.67;;
39968;SDS011;25648;47.808;19.004;2022-12-29T07:24:26;52.63;;;27.13;;
39968;SDS011;25648;47.808;19.004;2022-12-29T07:26:52;52.28;;;26.88;;
39968;SDS011;25648;47.808;19.004;2022-12-29T07:29:17;50.05;;;26.73;;
39968;SDS011;25648;47.808;19.004;2022-12-29T07:31:43;52.70;;;26.15;;
39968;SDS011;25648;47.808;19.004;2022-12-29T07:34:09;52.53;;;26.08;;
39968;SDS011;25648;47.808;19.004;2022-12-29T07:36:41;56.42;;;28.30;;
39968;SDS011;25648;47.808;19.004;2022-12-29T07:39:06;51.42;;;27.42;;
39968;SDS011;25648;47.808;19.004;2022-12-29T07:41:32;53.08;;;28.02;;
39968;SDS011;25648;47.808;19.004;2022-12-29T07:43:58;61.33;;;33.25;;
39968;SDS011;25648;47.808;19.004;2022-12-29T07:46:23;65.90;;;35.72;;
39968;SDS011;25648;47.808;19.004;2022-12-29T07:48:49;75.82;;;39.92;;
39968;SDS011;25648;47.808;19.004;2022-12-29T07:51:15;77.20;;;39.28;;
39968;SDS011;25648;47.808;19.004;2022-12-29T07:53:40;57.20;;;30.77;;
39968;SDS011;25648;47.808;19.004;2022-12-29T07:56:06;56.95;;;29.60;;
39968;SDS011;25648;47.808;19.004;2022-12-29T07:58:32;60.60;;;30.92;;
39968;SDS011;25648;47.808;19.004;2022-12-29T08:00:57;53.72;;;29.80;;
39968;SDS011;25648;47.808;19.004;2022-12-29T08:03:23;51.65;;;27.55;;
39968;SDS011;25648;47.808;19.004;2022-12-29T08:05:50;52.17;;;29.13;;
39968;SDS011;25648;47.808;19.004;2022-12-29T08:08:26;52.00;;;27.65;;
39968;SDS011;25648;47.808;19.004;2022-12-29T08:10:52;48.42;;;28.55;;
39968;SDS011;25648;47.808;19.004;2022-12-29T08:13:17;49.92;;;27.00;;
39968;SDS011;25648;47.808;19.004;2022-12-29T08:15:43;49.30;;;27.88;;
39968;SDS011;25648;47.808;19.004;2022-12-29T08:18:09;50.05;;;27.13;;
39968;SDS011;25648;47.808;19.004;2022-12-29T08:20:40;49.25;;;27.02;;
39968;SDS011;25648;47.808;19.004;2022-12-29T08:23:06;47.55;;;25.83;;
39968;SDS011;25648;47.808;19.004;2022-12-29T08:25:31;43.13;;;25.45;;
39968;SDS011;25648;47.808;19.004;2022-12-29T08:27:57;45.90;;;26.27;;
39968;SDS011;25648;47.808;19.004;2022-12-29T08:30:23;41.95;;;25.40;;
39968;SDS011;25648;47.808;19.004;2022-12-29T08:32:48;43.45;;;25.85;;
39968;SDS011;25648;47.808;19.004;2022-12-29T08:35:14;42.22;;;23.95;;
39968;SDS011;25648;47.808;19.004;2022-12-29T08:37:40;45.22;;;24.33;;
39968;SDS011;25648;47.808;19.004;2022-12-29T08:40:06;44.78;;;24.20;;
39968;SDS011;25648;47.808;19.004;2022-12-29T08:42:32;49.88;;;25.17;;
39968;SDS011;25648;47.808;19.004;2022-12-29T08:44:58;50.67;;;25.05;;
39968;SDS011;25648;47.808;19.004;2022-12-29T08:47:26;66.65;;;52.58;;
39968;SDS011;25648;47.808;19.004;2022-12-29T08:49:52;46.63;;;25.27;;
39968;SDS011;25648;47.808;19.004;2022-12-29T08:52:18;45.10;;;25.15;;
39968;SDS011;25648;47.808;19.004;2022-12-29T08:54:43;43.67;;;24.25;;
39968;SDS011;25648;47.808;19.004;2022-12-29T08:57:09;46.17;;;24.08;;
39968;SDS011;25648;47.808;19.004;2022-12-29T08:59:35;43.85;;;26.20;;
39968;SDS011;25648;47.808;19.004;2022-12-29T09:07:10;37.83;;;23.75;;
39968;SDS011;25648;47.808;19.004;2022-12-29T09:09:36;36.55;;;22.50;;
39968;SDS011;25648;47.808;19.004;2022-12-29T09:12:02;42.45;;;24.27;;
39968;SDS011;25648;47.808;19.004;2022-12-29T09:14:34;47.17;;;25.00;;
39968;SDS011;25648;47.808;19.004;2022-12-29T09:17:00;42.17;;;25.42;;
39968;SDS011;25648;47.808;19.004;2022-12-29T09:19:44;46.30;;;27.33;;
39968;SDS011;25648;47.808;19.004;2022-12-29T09:22:09;54.67;;;31.08;;
39968;SDS011;25648;47.808;19.004;2022-12-29T09:24:35;58.67;;;31.95;;
39968;SDS011;25648;47.808;19.004;2022-12-29T09:27:01;55.85;;;30.85;;
39968;SDS011;25648;47.808;19.004;2022-12-29T09:29:26;45.53;;;26.42;;
39968;SDS011;25648;47.808;19.004;2022-12-29T09:31:52;47.95;;;28.25;;
39968;SDS011;25648;47.808;19.004;2022-12-29T09:34:18;40.58;;;23.83;;
39968;SDS011;25648;47.808;19.004;2022-12-29T09:36:44;61.80;;;34.17;;
39968;SDS011;25648;47.808;19.004;2022-12-29T09:39:09;49.17;;;28.92;;
39968;SDS011;25648;47.808;19.004;2022-12-29T09:46:49;49.22;;;25.95;;
39968;SDS011;25648;47.808;19.004;2022-12-29T09:49:26;43.55;;;25.40;;
39968;SDS011;25648;47.808;19.004;2022-12-29T09:51:54;41.42;;;24.02;;
39968;SDS011;25648;47.808;19.004;2022-12-29T09:54:38;40.63;;;25.60;;
39968;SDS011;25648;47.808;19.004;2022-12-29T09:57:15;38.72;;;24.45;;
39968;SDS011;25648;47.808;19.004;2022-12-29T09:59:55;31.90;;;22.25;;
39968;SDS011;25648;47.808;19.004;2022-12-29T10:02:39;33.50;;;21.73;;
39968;SDS011;25648;47.808;19.004;2022-12-29T10:10:48;37.55;;;22.58;;
39968;SDS011;25648;47.808;19.004;2022-12-29T10:16:18;31.48;;;20.98;;
39968;SDS011;25648;47.808;19.004;2022-12-29T10:24:22;33.75;;;21.90;;
39968;SDS011;25648;47.808;19.004;2022-12-29T10:26:54;44.85;;;22.70;;
39968;SDS011;25648;47.808;19.004;2022-12-29T10:32:26;35.45;;;22.75;;
39968;SDS011;25648;47.808;19.004;2022-12-29T10:35:20;32.78;;;21.92;;
39968;SDS011;25648;47.808;19.004;2022-12-29T10:41:00;32.65;;;20.48;;
39968;SDS011;25648;47.808;19.004;2022-12-29T10:43:41;29.15;;;19.15;;
39968;SDS011;25648;47.808;19.004;2022-12-29T10:48:44;34.05;;;21.63;;
39968;SDS011;25648;47.808;19.004;2022-12-29T10:54:56;38.55;;;23.10;;
39968;SDS011;25648;47.808;19.004;2022-12-29T10:58:05;33.97;;;21.45;;
39968;SDS011;25648;47.808;19.004;2022-12-29T11:00:32;35.65;;;21.08;;
39968;SDS011;25648;47.808;19.004;2022-12-29T11:03:29;38.85;;;22.55;;
39968;SDS011;25648;47.808;19.004;2022-12-29T11:06:25;34.50;;;20.95;;
39968;SDS011;25648;47.808;19.004;2022-12-29T11:14:29;36.83;;;22.02;;
39968;SDS011;25648;47.808;19.004;2022-12-29T11:17:09;33.55;;;22.25;;
39968;SDS011;25648;47.808;19.004;2022-12-29T11:19:41;40.40;;;22.83;;
39968;SDS011;25648;47.808;19.004;2022-12-29T11:22:23;36.10;;;21.67;;
39968;SDS011;25648;47.808;19.004;2022-12-29T11:24:52;38.22;;;23.42;;
39968;SDS011;25648;47.808;19.004;2022-12-29T11:27:23;37.95;;;22.67;;
39968;SDS011;25648;47.808;19.004;2022-12-29T11:29:51;33.55;;;21.13;;
39968;SDS011;25648;47.808;19.004;2022-12-29T11:32:19;38.17;;;22.20;;
39968;SDS011;25648;47.808;19.004;2022-12-29T11:34:47;34.90;;;22.27;;
39968;SDS011;25648;47.808;19.004;2022-12-29T11:37:36;36.72;;;21.88;;
39968;SDS011;25648;47.808;19.004;2022-12-29T11:40:05;44.22;;;21.05;;
39968;SDS011;25648;47.808;19.004;2022-12-29T11:42:42;41.90;;;23.17;;
39968;SDS011;25648;47.808;19.004;2022-12-29T11:48:43;35.45;;;23.05;;
39968;SDS011;25648;47.808;19.004;2022-12-29T11:54:44;40.08;;;23.30;;
39968;SDS011;25648;47.808;19.004;2022-12-29T11:59:55;41.10;;;25.13;;
39968;SDS011;25648;47.808;19.004;2022-12-29T12:19:41;41.35;;;23.60;;
39968;SDS011;25648;47.808;19.004;2022-12-29T12:25:31;117.68;;;54.85;;
39968;SDS011;25648;47.808;19.004;2022-12-29T12:30:55;35.92;;;21.20;;
39968;SDS011;25648;47.808;19.004;2022-12-29T12:33:28;39.67;;;24.30;;
39968;SDS011;25648;47.808;19.004;2022-12-29T12:39:02;40.10;;;23.85;;
39968;SDS011;25648;47.808;19.004;2022-12-29T12:42:03;36.55;;;23.65;;
39968;SDS011;25648;47.808;19.004;2022-12-29T12:47:39;44.13;;;27.40;;
39968;SDS011;25648;47.808;19.004;2022-12-29T12:50:38;45.92;;;28.90;;
39968;SDS011;25648;47.808;19.004;2022-12-29T13:05:05;35.70;;;22.95;;
39968;SDS011;25648;47.808;19.004;2022-12-29T13:10:42;39.00;;;22.80;;
39968;SDS011;25648;47.808;19.004;2022-12-29T13:18:43;40.78;;;23.40;;
39968;SDS011;25648;47.808;19.004;2022-12-29T13:38:09;39.75;;;23.63;;
39968;SDS011;25648;47.808;19.004;2022-12-29T13:40:41;37.92;;;23.75;;
39968;SDS011;25648;47.808;19.004;2022-12-29T13:43:13;49.00;;;34.28;;
39968;SDS011;25648;47.808;19.004;2022-12-29T13:45:40;49.67;;;28.50;;
39968;SDS011;25648;47.808;19.004;2022-12-29T13:48:34;38.72;;;23.33;;
39968;SDS011;25648;47.808;19.004;2022-12-29T13:51:15;43.47;;;28.15;;
39968;SDS011;25648;47.808;19.004;2022-12-29T13:53:50;48.42;;;29.15;;
39968;SDS011;25648;47.808;19.004;2022-12-29T13:56:26;45.33;;;27.75;;
39968;SDS011;25648;47.808;19.004;2022-12-29T14:02:25;40.13;;;23.75;;
39968;SDS011;25648;47.808;19.004;2022-12-29T14:04:54;49.22;;;27.73;;
39968;SDS011;25648;47.808;19.004;2022-12-29T14:07:22;50.97;;;27.38;;
39968;SDS011;25648;47.808;19.004;2022-12-29T14:09:53;44.17;;;26.48;;
39968;SDS011;25648;47.808;19.004;2022-12-29T14:17:36;67.85;;;35.75;;
39968;SDS011;25648;47.808;19.004;2022-12-29T14:20:04;80.88;;;40.90;;
39968;SDS011;25648;47.808;19.004;2022-12-29T14:22:54;63.70;;;35.28;;
39968;SDS011;25648;47.808;19.004;2022-12-29T14:28:14;58.53;;;31.42;;
39968;SDS011;25648;47.808;19.004;2022-12-29T14:30:48;61.88;;;30.35;;
39968;SDS011;25648;47.808;19.004;2022-12-29T14:33:16;77.95;;;39.00;;
39968;SDS011;25648;47.808;19.004;2022-12-29T14:35:43;89.35;;;45.20;;
39968;SDS011;25648;47.808;19.004;2022-12-29T14:38:18;141.43;;;62.80;;
39968;SDS011;25648;47.808;19.004;2022-12-29T14:40:46;179.38;;;74.63;;
39968;SDS011;25648;47.808;19.004;2022-12-29T14:43:31;153.77;;;65.15;;
39968;SDS011;25648;47.808;19.004;2022-12-29T14:45:58;88.28;;;44.13;;
39968;SDS011;25648;47.808;19.004;2022-12-29T14:51:15;64.57;;;36.38;;
39968;SDS011;25648;47.808;19.004;2022-12-29T14:54:00;76.28;;;40.63;;
39968;SDS011;25648;47.808;19.004;2022-12-29T14:57:02;66.97;;;37.15;;
39968;SDS011;25648;47.808;19.004;2022-12-29T14:59:30;55.72;;;30.55;;
39968;SDS011;25648;47.808;19.004;2022-12-29T15:02:04;77.82;;;40.03;;
39968;SDS011;25648;47.808;19.004;2022-12-29T15:05:32;66.13;;;34.95;;
39968;SDS011;25648;47.808;19.004;2022-12-29T15:08:12;68.30;;;35.03;;
39968;SDS011;25648;47.808;19.004;2022-12-29T15:14:38;68.25;;;38.88;;
39968;SDS011;25648;47.808;19.004;2022-12-29T15:17:27;66.10;;;37.92;;
39968;SDS011;25648;47.808;19.004;2022-12-29T15:20:16;65.10;;;38.58;;
39968;SDS011;25648;47.808;19.004;2022-12-29T15:25:59;63.70;;;36.78;;
39968;SDS011;25648;47.808;19.004;2022-12-29T15:31:25;70.00;;;38.28;;
39968;SDS011;25648;47.808;19.004;2022-12-29T15:33:54;60.58;;;36.13;;
39968;SDS011;25648;47.808;19.004;2022-12-29T15:45:05;95.63;;;47.30;;
39968;SDS011;25648;47.808;19.004;2022-12-29T15:47:34;84.25;;;45.13;;
39968;SDS011;25648;47.808;19.004;2022-12-29T15:50:09;83.60;;;44.00;;
39968;SDS011;25648;47.808;19.004;2022-12-29T15:52:50;90.35;;;44.60;;
39968;SDS011;25648;47.808;19.004;2022-12-29T15:55:20;69.82;;;37.15;;
39968;SDS011;25648;47.808;19.004;2022-12-29T15:58:01;82.15;;;39.90;;
39968;SDS011;25648;47.808;19.004;2022-12-29T16:00:30;89.03;;;43.15;;
39968;SDS011;25648;47.808;19.004;2022-12-29T16:03:02;80.95;;;40.25;;
39968;SDS011;25648;47.808;19.004;2022-12-29T16:05:37;84.18;;;43.38;;
39968;SDS011;25648;47.808;19.004;2022-12-29T16:08:15;73.55;;;38.65;;
39968;SDS011;25648;47.808;19.004;2022-12-29T16:10:45;71.25;;;37.92;;
39968;SDS011;25648;47.808;19.004;2022-12-29T16:22:56;75.53;;;39.70;;
39968;SDS011;25648;47.808;19.004;2022-12-29T16:25:31;67.68;;;35.85;;
39968;SDS011;25648;47.808;19.004;2022-12-29T16:28:00;63.97;;;34.42;;
39968;SDS011;25648;47.808;19.004;2022-12-29T16:30:29;65.68;;;34.28;;
39968;SDS011;25648;47.808;19.004;2022-12-29T16:32:58;62.22;;;33.63;;
39968;SDS011;25648;47.808;19.004;2022-12-29T16:35:46;58.50;;;32.78;;
39968;SDS011;25648;47.808;19.004;2022-12-29T16:41:02;64.68;;;33.53;;
39968;SDS011;25648;47.808;19.004;2022-12-29T16:51:03;75.30;;;38.10;;
39968;SDS011;25648;47.808;19.004;2022-12-29T16:53:41;72.43;;;38.85;;
39968;SDS011;25648;47.808;19.004;2022-12-29T16:56:16;83.18;;;44.63;;
39968;SDS011;25648;47.808;19.004;2022-12-29T16:58:48;84.07;;;42.90;;
39968;SDS011;25648;47.808;19.004;2022-12-29T17:01:39;75.47;;;36.35;;
39968;SDS011;25648;47.808;19.004;2022-12-29T17:04:06;82.25;;;42.00;;
39968;SDS011;25648;47.808;19.004;2022-12-29T17:13:18;85.85;;;44.00;;
39968;SDS011;25648;47.808;19.004;2022-12-29T17:15:44;89.78;;;45.30;;
39968;SDS011;25648;47.808;19.004;2022-12-29T17:18:10;91.70;;;44.90;;
39968;SDS011;25648;47.808;19.004;2022-12-29T17:20:37;83.03;;;41.58;;
39968;SDS011;25648;47.808;19.004;2022-12-29T17:23:04;77.63;;;40.00;;
39968;SDS011;25648;47.808;19.004;2022-12-29T17:25:40;84.90;;;43.15;;
39968;SDS011;25648;47.808;19.004;2022-12-29T17:28:18;96.35;;;46.38;;
39968;SDS011;25648;47.808;19.004;2022-12-29T17:30:47;96.95;;;49.80;;
39968;SDS011;25648;47.808;19.004;2022-12-29T17:33:14;101.00;;;48.95;;
39968;SDS011;25648;47.808;19.004;2022-12-29T17:35:42;102.57;;;51.35;;
39968;SDS011;25648;47.808;19.004;2022-12-29T17:38:30;88.40;;;44.65;;
39968;SDS011;25648;47.808;19.004;2022-12-29T17:40:55;94.13;;;49.03;;
39968;SDS011;25648;47.808;19.004;2022-12-29T17:43:21;119.40;;;58.17;;
39968;SDS011;25648;47.808;19.004;2022-12-29T17:45:54;99.32;;;49.17;;
39968;SDS011;25648;47.808;19.004;2022-12-29T17:48:22;98.50;;;49.58;;
39968;SDS011;25648;47.808;19.004;2022-12-29T17:50:49;104.13;;;50.72;;
39968;SDS011;25648;47.808;19.004;2022-12-29T17:53:24;103.63;;;52.10;;
39968;SDS011;25648;47.808;19.004;2022-12-29T17:55:52;107.88;;;52.15;;
39968;SDS011;25648;47.808;19.004;2022-12-29T18:00:46;101.63;;;51.00;;
39968;SDS011;25648;47.808;19.004;2022-12-29T18:03:14;95.97;;;49.58;;
39968;SDS011;25648;47.808;19.004;2022-12-29T18:05:41;92.35;;;41.60;;
39968;SDS011;25648;47.808;19.004;2022-12-29T18:08:10;83.38;;;40.17;;
39968;SDS011;25648;47.808;19.004;2022-12-29T18:10:36;74.65;;;40.65;;